Time;durP1;ratioP1;P1;durP2;ratioP2;P2;SDS_P1;SDS_P2;PMS_P1;PMS_P2;Temp;Humidity;BMP_temperature;BMP_pressure;BME280_temperature;BME280_humidity;BME280_pressure;Samples;Min_cycle;Max_cycle;Signal;HPM_P1;HPM_P2
2022/10/12 00:01:21;;;;;;;21.40;8.55;;;5.80;99.90;;;;;;5028575;28;20555;-59
2022/10/12 00:03:47;;;;;;;32.20;10.27;;;5.70;99.90;;;;;;5031734;28;20033;-62
2022/10/12 00:06:14;;;;;;;24.10;10.55;;;5.80;99.90;;;;;;5031360;28;20032;-60
2022/10/12 00:08:41;;;;;;;22.95;10.32;;;5.70;99.90;;;;;;5030179;28;20033;-61
2022/10/12 00:11:10;;;;;;;25.30;9.70;;;5.70;99.90;;;;;;5026740;28;20502;-59
2022/10/12 00:13:36;;;;;;;24.52;9.07;;;5.70;99.90;;;;;;5028157;28;20029;-62
2022/10/12 00:16:09;;;;;;;31.90;10.50;;;5.80;99.90;;;;;;5027295;28;20052;-64
2022/10/12 00:18:35;;;;;;;25.20;10.30;;;5.80;99.90;;;;;;5029572;28;20042;-62
2022/10/12 00:21:07;;;;;;;29.50;10.13;;;5.80;99.90;;;;;;5030031;28;20041;-61
2022/10/12 00:23:35;;;;;;;23.67;8.70;;;5.70;99.90;;;;;;5029826;28;20029;-62
2022/10/12 00:26:04;;;;;;;21.30;9.52;;;5.80;99.90;;;;;;5027398;28;20036;-57
2022/10/12 00:28:30;;;;;;;18.80;9.93;;;5.80;99.90;;;;;;5030767;28;20034;-59
2022/10/12 00:30:56;;;;;;;23.48;8.90;;;5.80;99.90;;;;;;5024446;28;20048;-63
2022/10/12 00:33:22;;;;;;;18.17;9.02;;;5.90;99.90;;;;;;5031147;28;20052;-60
2022/10/12 00:35:47;;;;;;;22.52;8.13;;;5.90;99.90;;;;;;5030977;28;20029;-61
2022/10/12 00:38:13;;;;;;;20.13;8.63;;;5.80;99.90;;;;;;5030706;28;20108;-62
2022/10/12 00:40:38;;;;;;;17.30;8.30;;;5.80;99.90;;;;;;5028832;28;20041;-62
2022/10/12 00:43:23;;;;;;;24.27;8.68;;;5.70;99.90;;;;;;5031530;28;20026;-59
2022/10/12 00:45:48;;;;;;;17.80;8.20;;;5.60;99.90;;;;;;5029409;28;20109;-60
2022/10/12 00:48:14;;;;;;;17.80;8.45;;;5.70;99.90;;;;;;5027242;28;20113;-62
2022/10/12 00:50:39;;;;;;;31.40;10.88;;;5.80;99.90;;;;;;5024470;28;20025;-62
2022/10/12 00:53:12;;;;;;;35.22;9.30;;;5.70;99.90;;;;;;5024107;28;20037;-62
2022/10/12 00:55:43;;;;;;;23.10;8.57;;;5.70;99.90;;;;;;5028419;28;20061;-63
2022/10/12 00:58:10;;;;;;;20.33;8.18;;;5.70;99.90;;;;;;5017601;28;20145;-59
2022/10/12 01:00:37;;;;;;;25.00;8.18;;;5.70;99.90;;;;;;5023914;28;20573;-59
2022/10/12 01:03:06;;;;;;;15.57;8.70;;;5.70;99.90;;;;;;5027779;28;20056;-58
2022/10/12 01:05:32;;;;;;;17.58;8.75;;;5.60;99.90;;;;;;5021345;28;20034;-60
2022/10/12 01:07:59;;;;;;;21.85;8.60;;;5.60;99.90;;;;;;5024126;28;21842;-60
2022/10/12 01:10:25;;;;;;;20.17;8.00;;;5.50;99.90;;;;;;5027673;28;20057;-62
2022/10/12 01:12:51;;;;;;;20.33;8.15;;;5.50;99.90;;;;;;5023267;28;20186;-65
2022/10/12 01:15:16;;;;;;;19.23;7.82;;;5.30;99.90;;;;;;5023143;28;20025;-61
2022/10/12 01:17:54;;;;;;;27.58;8.80;;;5.30;99.90;;;;;;5022861;28;20021;-60
2022/10/12 01:20:40;;;;;;;18.88;7.95;;;5.40;99.90;;;;;;5024383;28;20036;-59
2022/10/12 01:23:26;;;;;;;20.38;7.90;;;5.50;99.90;;;;;;5021919;28;20357;-62
2022/10/12 01:26:05;;;;;;;20.75;8.65;;;5.40;99.90;;;;;;5028087;28;20495;-61
2022/10/12 01:28:50;;;;;;;20.40;7.68;;;5.40;99.90;;;;;;5029540;28;20389;-62
2022/10/12 01:31:33;;;;;;;;;;;5.40;99.90;;;;;;5023333;28;20184;-58
2022/10/12 01:34:08;;;;;;;22.65;7.43;;;5.40;99.90;;;;;;5030039;28;19917;-62
2022/10/12 01:36:39;;;;;;;19.70;7.78;;;5.40;99.90;;;;;;5030583;28;20063;-59
2022/10/12 01:39:21;;;;;;;15.15;7.18;;;5.40;99.90;;;;;;5017889;28;20053;-60
2022/10/12 01:41:53;;;;;;;18.23;7.28;;;5.40;99.90;;;;;;5027828;28;20021;-60
2022/10/12 01:44:23;;;;;;;20.00;7.10;;;5.40;99.90;;;;;;5027224;28;20647;-59
2022/10/12 01:46:50;;;;;;;17.73;7.72;;;5.40;99.90;;;;;;5021956;28;20029;-58
2022/10/12 01:49:19;;;;;;;14.77;7.22;;;5.40;99.90;;;;;;5019276;28;20037;-61
2022/10/12 01:51:56;;;;;;;26.10;8.68;;;5.40;99.90;;;;;;5023649;28;20498;-59
2022/10/12 01:54:43;;;;;;;24.67;7.60;;;5.30;99.90;;;;;;5019590;28;20033;-62
2022/10/12 01:57:23;;;;;;;17.80;8.20;;;5.20;99.90;;;;;;5028385;28;20029;-60
2022/10/12 02:00:12;;;;;;;17.75;7.70;;;5.10;99.90;;;;;;5028934;28;20029;-62
2022/10/12 02:03:09;;;;;;;15.27;8.00;;;5.00;99.90;;;;;;5019991;28;20107;-63
2022/10/12 02:05:37;;;;;;;23.13;7.50;;;5.00;99.90;;;;;;5024344;28;20387;-62
2022/10/12 02:08:23;;;;;;;13.77;6.75;;;5.00;99.90;;;;;;5028697;28;20049;-63
2022/10/12 02:11:06;;;;;;;22.10;8.00;;;5.00;99.90;;;;;;5014977;28;20496;-63
2022/10/12 02:13:37;;;;;;;26.73;7.75;;;5.10;99.90;;;;;;5023353;28;20553;-59
2022/10/12 02:16:08;;;;;;;25.75;8.07;;;5.10;99.90;;;;;;5023304;28;20031;-65
2022/10/12 02:18:38;;;;;;;24.50;7.30;;;5.20;99.90;;;;;;5024471;28;20514;-60
2022/10/12 02:21:05;;;;;;;21.45;7.30;;;5.10;99.90;;;;;;5025339;28;20025;-62
2022/10/12 02:23:33;;;;;;;24.48;7.63;;;5.10;99.90;;;;;;5023322;28;20026;-60
2022/10/12 02:26:01;;;;;;;24.42;7.30;;;5.10;99.90;;;;;;5032139;28;20541;-62
2022/10/12 02:28:29;;;;;;;18.67;7.15;;;5.10;99.90;;;;;;5033798;28;20495;-62
2022/10/12 02:31:18;;;;;;;15.32;6.75;;;5.20;99.90;;;;;;5032324;28;20051;-59
2022/10/12 02:34:04;;;;;;;14.93;7.00;;;5.20;99.90;;;;;;5032217;28;20033;-60
2022/10/12 02:36:47;;;;;;;16.67;6.97;;;5.20;99.90;;;;;;5026287;28;20026;-63
2022/10/12 02:39:26;;;;;;;16.45;6.32;;;5.20;99.90;;;;;;5026525;28;20514;-60
2022/10/12 02:41:58;;;;;;;17.58;7.28;;;5.20;99.90;;;;;;5011534;28;20065;-61
2022/10/12 02:44:29;;;;;;;14.52;7.35;;;5.20;99.90;;;;;;5029791;28;20033;-59
2022/10/12 02:46:58;;;;;;;11.57;6.57;;;5.30;99.90;;;;;;5031902;28;20029;-60
2022/10/12 02:49:26;;;;;;;18.58;7.85;;;5.10;99.90;;;;;;5033655;28;20033;-60
2022/10/12 02:51:53;;;;;;;24.73;7.13;;;5.20;99.90;;;;;;5031780;28;20049;-60
2022/10/12 02:54:19;;;;;;;17.88;6.13;;;5.20;99.90;;;;;;5033459;28;20017;-60
2022/10/12 02:56:46;;;;;;;17.85;6.97;;;5.20;99.90;;;;;;5030792;28;20061;-61
2022/10/12 02:59:16;;;;;;;17.70;6.93;;;5.10;99.90;;;;;;5029956;28;20258;-56
2022/10/12 03:01:42;;;;;;;12.13;6.95;;;4.90;99.90;;;;;;5028838;28;20044;-58
2022/10/12 03:04:08;;;;;;;19.77;8.82;;;4.90;99.90;;;;;;5029654;28;20096;-63
2022/10/12 03:06:34;;;;;;;19.45;8.18;;;4.80;99.90;;;;;;5028902;28;20033;-58
2022/10/12 03:09:00;;;;;;;24.05;7.32;;;4.70;99.90;;;;;;5031906;28;20032;-58
2022/10/12 03:11:26;;;;;;;20.17;7.43;;;4.70;99.90;;;;;;5029579;28;20024;-61
2022/10/12 03:13:53;;;;;;;17.95;7.93;;;4.50;99.90;;;;;;5032473;28;20403;-61
2022/10/12 03:16:18;;;;;;;16.83;7.90;;;4.50;99.90;;;;;;5032973;28;20029;-59
2022/10/12 03:18:44;;;;;;;15.57;7.38;;;4.60;99.90;;;;;;5031516;28;20037;-60
2022/10/12 03:21:09;;;;;;;21.77;8.80;;;4.60;99.90;;;;;;5032287;28;20083;-60
2022/10/12 03:23:35;;;;;;;16.60;7.28;;;4.70;99.90;;;;;;5032476;28;20134;-59
2022/10/12 03:26:01;;;;;;;16.10;7.28;;;4.80;99.90;;;;;;5030650;28;20055;-60
2022/10/12 03:28:27;;;;;;;17.80;7.70;;;4.80;99.90;;;;;;5033065;28;20026;-62
2022/10/12 03:30:52;;;;;;;21.30;7.65;;;4.80;99.90;;;;;;5030402;28;20593;-62
2022/10/12 03:33:18;;;;;;;16.50;7.28;;;4.90;99.90;;;;;;5032658;28;20045;-62
2022/10/12 03:35:44;;;;;;;17.48;8.15;;;4.90;99.90;;;;;;5033716;28;21071;-60
2022/10/12 03:38:10;;;;;;;19.23;7.72;;;4.90;99.90;;;;;;5033853;28;20025;-59
2022/10/12 03:40:37;;;;;;;14.82;6.60;;;4.90;99.90;;;;;;5031864;28;20718;-58
2022/10/12 03:43:03;;;;;;;17.05;7.32;;;4.90;99.90;;;;;;5025941;28;20038;-59
2022/10/12 03:45:28;;;;;;;26.38;7.32;;;4.90;99.90;;;;;;5029941;28;20105;-61
2022/10/12 03:47:54;;;;;;;27.52;8.48;;;4.90;99.90;;;;;;5029976;28;20156;-58
2022/10/12 03:50:20;;;;;;;20.27;6.35;;;4.90;99.90;;;;;;5031185;28;20026;-59
2022/10/12 03:52:45;;;;;;;15.40;6.85;;;4.80;99.90;;;;;;5031317;28;20545;-62
2022/10/12 03:55:12;;;;;;;14.98;7.32;;;4.90;99.90;;;;;;5030019;28;20026;-63
2022/10/12 03:57:37;;;;;;;19.38;7.60;;;4.90;99.90;;;;;;5032328;28;20156;-64
2022/10/12 04:00:03;;;;;;;16.52;7.95;;;4.90;99.90;;;;;;5024659;28;20048;-63
2022/10/12 04:02:29;;;;;;;13.98;7.53;;;4.90;99.90;;;;;;5027953;28;20495;-61
2022/10/12 04:04:54;;;;;;;13.55;7.00;;;5.00;99.90;;;;;;5022420;28;20045;-60
2022/10/12 04:07:20;;;;;;;23.40;6.35;;;5.00;99.90;;;;;;5029793;28;20487;-63
2022/10/12 04:09:46;;;;;;;35.80;7.57;;;5.00;99.90;;;;;;5030466;28;20040;-61
2022/10/12 04:12:12;;;;;;;22.65;6.68;;;4.90;99.90;;;;;;5030808;28;20453;-60
2022/10/12 04:14:37;;;;;;;19.02;7.47;;;5.00;99.90;;;;;;5029518;28;20090;-62
2022/10/12 04:17:03;;;;;;;14.75;6.57;;;5.00;99.90;;;;;;5027373;28;20441;-61
2022/10/12 04:19:28;;;;;;;16.42;7.05;;;5.00;99.90;;;;;;5020206;28;20036;-59
2022/10/12 04:21:54;;;;;;;20.80;6.25;;;5.00;99.90;;;;;;5030056;28;20026;-62
2022/10/12 04:24:19;;;;;;;13.88;6.57;;;5.00;99.90;;;;;;5032229;28;20030;-61
2022/10/12 04:26:45;;;;;;;13.50;6.45;;;5.10;99.90;;;;;;5026449;28;20029;-60
2022/10/12 04:29:12;;;;;;;17.55;6.80;;;5.10;99.90;;;;;;5030492;28;20032;-61
2022/10/12 04:31:38;;;;;;;13.48;6.80;;;5.10;99.90;;;;;;5026199;28;20068;-62
2022/10/12 04:34:04;;;;;;;17.52;6.00;;;5.10;99.90;;;;;;5029253;28;20057;-63
2022/10/12 04:36:29;;;;;;;21.02;6.13;;;5.00;99.90;;;;;;5029000;28;20596;-60
2022/10/12 04:38:55;;;;;;;15.95;6.80;;;4.90;99.90;;;;;;5031131;28;20048;-59
2022/10/12 04:41:20;;;;;;;12.80;5.88;;;4.80;99.90;;;;;;5024487;28;20514;-63
2022/10/12 04:43:46;;;;;;;25.55;7.13;;;4.70;99.90;;;;;;5027838;28;20108;-62
2022/10/12 04:46:11;;;;;;;22.38;5.97;;;4.60;99.90;;;;;;5027963;28;20033;-61
2022/10/12 04:48:37;;;;;;;14.32;5.38;;;4.70;99.90;;;;;;5008907;28;20033;-62
2022/10/12 04:51:03;;;;;;;13.27;6.40;;;4.80;99.90;;;;;;5028887;28;20029;-61
2022/10/12 04:53:29;;;;;;;16.75;6.43;;;4.80;99.90;;;;;;5030792;28;20045;-56
2022/10/12 04:55:55;;;;;;;19.77;6.53;;;4.70;99.90;;;;;;5030307;28;20107;-66
2022/10/12 04:58:20;;;;;;;22.75;7.05;;;4.70;99.90;;;;;;5028894;28;20037;-59
2022/10/12 05:00:47;;;;;;;23.10;7.07;;;4.80;99.90;;;;;;5028440;28;20037;-61
2022/10/12 05:03:13;;;;;;;15.23;6.10;;;4.90;99.90;;;;;;5030656;28;20051;-61
2022/10/12 05:05:38;;;;;;;19.90;7.00;;;4.90;99.90;;;;;;5028881;28;20577;-61
2022/10/12 05:08:04;;;;;;;15.32;5.97;;;4.90;99.90;;;;;;5027650;28;20503;-61
2022/10/12 05:10:30;;;;;;;24.52;6.45;;;5.00;99.90;;;;;;5029160;28;20080;-65
2022/10/12 05:12:56;;;;;;;16.38;5.82;;;5.00;99.90;;;;;;5011162;28;20033;-60
2022/10/12 05:15:21;;;;;;;19.05;6.20;;;5.00;99.90;;;;;;5027742;28;20034;-64
2022/10/12 05:17:47;;;;;;;15.48;6.07;;;5.00;99.90;;;;;;5029400;28;20096;-61
2022/10/12 05:20:12;;;;;;;15.98;7.40;;;5.10;99.90;;;;;;5029389;28;20057;-58
2022/10/12 05:22:38;;;;;;;17.88;6.60;;;5.00;99.90;;;;;;5029652;28;20483;-63
2022/10/12 05:25:04;;;;;;;18.42;6.75;;;5.00;99.90;;;;;;5024084;28;20511;-61
2022/10/12 05:27:30;;;;;;;16.65;6.38;;;5.00;99.90;;;;;;5030736;28;20026;-58
2022/10/12 05:29:56;;;;;;;14.80;6.55;;;5.00;99.90;;;;;;5026602;28;20098;-60
2022/10/12 05:32:21;;;;;;;15.77;6.38;;;5.00;99.90;;;;;;5019944;28;20463;-57
2022/10/12 05:34:47;;;;;;;14.82;6.10;;;4.90;99.90;;;;;;5026877;28;20025;-59
2022/10/12 05:37:12;;;;;;;27.25;6.90;;;4.90;99.90;;;;;;5028287;28;20109;-58
2022/10/12 05:39:38;;;;;;;12.38;5.90;;;4.80;99.90;;;;;;5030078;28;20088;-64
2022/10/12 05:42:04;;;;;;;13.32;5.43;;;4.80;99.90;;;;;;5011111;28;20148;-58
2022/10/12 05:44:29;;;;;;;22.63;6.38;;;4.80;99.90;;;;;;5025292;28;20399;-61
2022/10/12 05:46:55;;;;;;;19.70;7.10;;;4.90;99.90;;;;;;5026427;28;20068;-64
2022/10/12 05:49:21;;;;;;;13.80;5.88;;;4.80;99.90;;;;;;5028704;28;20029;-64
2022/10/12 05:51:46;;;;;;;15.95;6.05;;;4.70;99.90;;;;;;5026228;28;20030;-64
2022/10/12 05:54:12;;;;;;;17.15;6.28;;;4.70;99.90;;;;;;5028486;28;20080;-57
2022/10/12 05:56:37;;;;;;;16.60;5.75;;;4.70;99.90;;;;;;5026657;28;20026;-56
2022/10/12 05:59:03;;;;;;;13.77;5.95;;;4.60;99.90;;;;;;5027387;28;20033;-55
2022/10/12 06:01:29;;;;;;;13.52;5.53;;;4.60;99.90;;;;;;5022835;28;20029;-53
2022/10/12 06:03:54;;;;;;;17.90;6.88;;;4.60;99.90;;;;;;5011876;28;20091;-56
2022/10/12 06:06:20;;;;;;;12.95;5.60;;;4.60;99.90;;;;;;5027498;28;20049;-54
2022/10/12 06:08:46;;;;;;;14.90;6.05;;;4.60;99.90;;;;;;5028201;28;20442;-56
2022/10/12 06:11:12;;;;;;;12.25;6.32;;;4.60;99.90;;;;;;5024991;28;20095;-55
2022/10/12 06:13:38;;;;;;;16.55;7.13;;;4.70;99.90;;;;;;5004998;28;20022;-57
2022/10/12 06:16:04;;;;;;;19.27;7.03;;;4.70;99.90;;;;;;5026864;28;20507;-54
2022/10/12 06:18:29;;;;;;;20.10;8.00;;;4.70;99.90;;;;;;5029923;28;20491;-57
2022/10/12 06:20:55;;;;;;;17.58;6.85;;;4.80;99.90;;;;;;5029291;28;20077;-55
2022/10/12 06:23:21;;;;;;;18.48;6.78;;;4.80;99.90;;;;;;5028868;28;20113;-57
2022/10/12 06:25:48;;;;;;;21.55;8.45;;;4.80;99.90;;;;;;5027611;28;20124;-57
2022/10/12 06:28:15;;;;;;;15.48;5.70;;;4.80;99.90;;;;;;5045123;23;20037;-53
2022/10/12 06:30:41;;;;;;;18.52;6.25;;;4.80;99.90;;;;;;5006571;28;20112;-53
2022/10/12 06:33:07;;;;;;;18.25;6.57;;;4.80;99.90;;;;;;5021815;28;20100;-52
2022/10/12 06:35:33;;;;;;;44.28;11.38;;;4.90;99.90;;;;;;5035718;28;20021;-52
2022/10/12 06:37:58;;;;;;;10.10;6.22;;;4.90;99.90;;;;;;5014403;28;20128;-52
2022/10/12 06:40:24;;;;;;;17.38;6.05;;;4.90;99.90;;;;;;5006237;28;20488;-52
2022/10/12 06:42:51;;;;;;;18.48;6.72;;;5.00;99.90;;;;;;5013360;28;20117;-53
2022/10/12 06:45:17;;;;;;;17.75;6.47;;;5.00;99.90;;;;;;5019715;28;20037;-54
2022/10/12 06:47:43;;;;;;;20.40;6.20;;;5.10;99.90;;;;;;5006112;28;20030;-54
2022/10/12 06:50:08;;;;;;;17.35;6.60;;;5.20;99.90;;;;;;5007980;28;20033;-54
2022/10/12 06:52:34;;;;;;;16.35;6.93;;;5.20;99.90;;;;;;5010399;28;20093;-56
2022/10/12 06:55:00;;;;;;;17.75;5.72;;;5.20;99.90;;;;;;5018017;28;20026;-52
2022/10/12 06:57:26;;;;;;;16.40;7.15;;;5.30;99.90;;;;;;5008456;28;20084;-54
2022/10/12 06:59:51;;;;;;;17.33;7.72;;;5.40;99.90;;;;;;5018808;28;20160;-56
2022/10/12 07:02:17;;;;;;;18.88;6.80;;;5.40;99.90;;;;;;5012319;28;20030;-56
2022/10/12 07:04:42;;;;;;;14.20;6.38;;;5.50;99.90;;;;;;5008130;28;20451;-54
2022/10/12 07:07:08;;;;;;;18.05;6.90;;;5.50;99.90;;;;;;5027790;28;20399;-57
2022/10/12 07:09:34;;;;;;;15.25;6.25;;;5.60;99.90;;;;;;5017849;28;20030;-57
2022/10/12 07:11:59;;;;;;;17.80;6.38;;;5.60;99.90;;;;;;5008585;28;20101;-54
2022/10/12 07:14:25;;;;;;;15.50;6.38;;;5.70;99.90;;;;;;5011232;28;20407;-54
2022/10/12 07:16:51;;;;;;;17.02;6.10;;;5.70;99.90;;;;;;5018864;28;20038;-54
2022/10/12 07:19:16;;;;;;;16.95;6.95;;;5.80;99.90;;;;;;5021123;28;20033;-56
2022/10/12 07:21:42;;;;;;;13.38;7.03;;;5.80;99.90;;;;;;5027078;28;20393;-56
2022/10/12 07:24:11;;;;;;;19.88;6.40;;;5.90;99.90;;;;;;5024103;28;20029;-54
2022/10/12 07:26:37;;;;;;;18.85;6.82;;;5.90;99.90;;;;;;5018967;28;20113;-57
2022/10/12 07:29:02;;;;;;;14.80;6.78;;;6.00;99.90;;;;;;5012148;28;20113;-56
2022/10/12 07:31:28;;;;;;;15.18;7.47;;;6.00;99.90;;;;;;5015864;28;20033;-56
2022/10/12 07:33:54;;;;;;;18.73;6.47;;;6.10;99.90;;;;;;5011814;28;20433;-53
2022/10/12 07:36:19;;;;;;;21.20;6.63;;;6.20;99.90;;;;;;5017065;28;20033;-55
2022/10/12 07:38:47;;;;;;;17.55;6.38;;;6.20;99.90;;;;;;5022287;28;20103;-53
2022/10/12 07:41:13;;;;;;;17.75;6.30;;;6.30;99.90;;;;;;5030745;28;20022;-55
2022/10/12 07:43:39;;;;;;;19.77;7.10;;;6.40;99.90;;;;;;5018241;28;20038;-56
2022/10/12 07:46:04;;;;;;;13.85;6.97;;;6.40;99.90;;;;;;5021240;28;20037;-53
2022/10/12 07:48:30;;;;;;;28.08;7.95;;;6.50;99.90;;;;;;5012279;28;20026;-53
2022/10/12 07:51:03;;;;;;;14.65;7.10;;;6.50;99.90;;;;;;5009645;28;20033;-53
2022/10/12 07:53:28;;;;;;;26.75;7.97;;;6.60;99.90;;;;;;5021516;28;20024;-56
2022/10/12 07:56:02;;;;;;;19.17;6.78;;;6.60;99.90;;;;;;5010165;28;20034;-57
2022/10/12 07:58:28;;;;;;;20.65;7.30;;;6.70;99.90;;;;;;5007606;28;20550;-55
2022/10/12 08:00:53;;;;;;;32.40;8.20;;;6.70;99.90;;;;;;5009066;28;20049;-56
2022/10/12 08:03:19;;;;;;;19.85;6.80;;;6.80;99.90;;;;;;5017937;28;20029;-56
2022/10/12 08:05:44;;;;;;;25.67;7.10;;;6.90;99.90;;;;;;5011986;28;20496;-54
2022/10/12 08:08:10;;;;;;;20.30;7.10;;;7.00;99.90;;;;;;5012025;28;20022;-54
2022/10/12 08:10:35;;;;;;;21.20;6.97;;;7.10;99.90;;;;;;5008566;28;20034;-54
2022/10/12 08:13:02;;;;;;;22.42;7.38;;;7.10;99.90;;;;;;5012495;28;20026;-54
2022/10/12 08:15:27;;;;;;;13.73;6.78;;;7.20;99.90;;;;;;5016904;28;20388;-57
2022/10/12 08:17:53;;;;;;;17.50;6.80;;;7.30;99.90;;;;;;5006907;28;20041;-57
2022/10/12 08:20:18;;;;;;;17.60;7.25;;;7.40;99.90;;;;;;5010411;28;20109;-52
2022/10/12 08:22:44;;;;;;;17.48;8.02;;;7.50;99.90;;;;;;5009684;28;20071;-56
2022/10/12 08:25:09;;;;;;;17.63;7.57;;;7.60;99.90;;;;;;5016105;28;20479;-56
2022/10/12 08:27:37;;;;;;;21.42;8.20;;;7.70;99.90;;;;;;5015421;28;20044;-53
2022/10/12 08:30:06;;;;;;;22.30;7.78;;;7.80;99.90;;;;;;5020026;28;20045;-56
2022/10/12 08:32:32;;;;;;;20.55;6.97;;;7.90;99.90;;;;;;5026051;28;20108;-53
2022/10/12 08:34:58;;;;;;;21.58;7.43;;;8.10;99.90;;;;;;5029501;28;20033;-54
2022/10/12 08:37:23;;;;;;;17.23;6.80;;;8.20;99.90;;;;;;5032563;28;20022;-56
2022/10/12 08:39:50;;;;;;;16.80;6.03;;;8.30;99.90;;;;;;5022297;28;20033;-57
2022/10/12 08:42:27;;;;;;;22.05;7.47;;;8.40;99.90;;;;;;5016582;28;20025;-55
2022/10/12 08:45:26;;;;;;;16.83;5.88;;;8.60;99.90;;;;;;5017544;28;20036;-56
2022/10/12 08:48:10;;;;;;;23.30;7.45;;;8.80;99.90;;;;;;5010574;28;20456;-54
2022/10/12 08:50:45;;;;;;;15.77;6.88;;;8.80;99.90;;;;;;5010803;28;20088;-55
2022/10/12 08:53:21;;;;;;;18.23;6.78;;;8.90;99.90;;;;;;5010939;28;20395;-54
2022/10/12 08:55:48;;;;;;;15.57;6.40;;;9.00;99.90;;;;;;5010768;28;20026;-53
2022/10/12 08:58:19;;;;;;;19.73;6.80;;;9.10;99.90;;;;;;5010270;28;20080;-53
2022/10/12 09:00:49;;;;;;;15.05;6.70;;;9.10;99.90;;;;;;5009899;28;20113;-53
2022/10/12 09:03:36;;;;;;;39.67;8.32;;;9.20;99.90;;;;;;5025792;28;20109;-54
2022/10/12 09:06:27;;;;;;;24.33;6.40;;;9.40;99.90;;;;;;5011455;28;20060;-54
2022/10/12 09:09:25;;;;;;;19.25;7.43;;;9.50;99.90;;;;;;5024375;28;20029;-56
2022/10/12 09:12:06;;;;;;;22.77;7.72;;;9.60;99.90;;;;;;5027365;28;20454;-54
2022/10/12 09:14:35;;;;;;;24.63;7.85;;;9.70;99.90;;;;;;5026974;28;20095;-57
2022/10/12 09:17:06;;;;;;;32.88;8.95;;;9.70;99.90;;;;;;5009655;28;20204;-57
2022/10/12 09:19:39;;;;;;;24.90;8.45;;;9.90;99.90;;;;;;5010307;28;20056;-53
2022/10/12 09:22:19;;;;;;;32.38;9.05;;;10.00;99.90;;;;;;5020199;28;20118;-55
2022/10/12 09:27:35;;;;;;;19.08;7.95;;;10.20;99.90;;;;;;5808880;22;20054;-66
2022/10/12 09:30:03;;;;;;;22.17;8.15;;;10.30;99.90;;;;;;5013383;28;20049;-66
2022/10/12 09:33:04;;;;;;;18.42;9.30;;;10.40;99.90;;;;;;5021422;28;20041;-66
2022/10/12 09:35:31;;;;;;;20.00;8.30;;;10.50;99.90;;;;;;5000587;28;20048;-67
2022/10/12 09:37:57;;;;;;;18.17;8.07;;;10.60;99.90;;;;;;5013435;28;20051;-67
2022/10/12 09:40:31;;;;;;;24.73;9.02;;;10.80;99.90;;;;;;5016986;28;20022;-67
2022/10/12 09:42:59;;;;;;;25.33;7.82;;;10.80;99.90;;;;;;5009375;28;20160;-67
2022/10/12 09:45:27;;;;;;;20.70;7.85;;;11.00;99.90;;;;;;5023583;28;20084;-68
2022/10/12 09:48:08;;;;;;;22.23;7.68;;;11.10;99.90;;;;;;5015642;28;20116;-67
2022/10/12 09:50:45;;;;;;;17.45;7.65;;;11.30;99.90;;;;;;5005068;28;20108;-67
2022/10/12 09:53:39;;;;;;;16.05;7.57;;;11.40;99.90;;;;;;5003517;28;20041;-67
2022/10/12 09:56:11;;;;;;;12.13;6.57;;;11.50;99.90;;;;;;5029438;28;20038;-67
2022/10/12 09:58:48;;;;;;;17.20;6.55;;;11.40;99.90;;;;;;5022521;28;20353;-66
2022/10/12 10:04:04;;;;;;;21.23;6.78;;;11.60;99.90;;;;;;5032952;28;20057;-61
2022/10/12 10:06:30;;;;;;;23.48;7.13;;;11.80;99.90;;;;;;5038970;28;20146;-59
2022/10/12 10:08:57;;;;;;;22.23;6.78;;;11.90;99.90;;;;;;5044897;28;20111;-61
2022/10/12 10:11:25;;;;;;;16.73;6.72;;;12.10;99.90;;;;;;5036425;28;20105;-58
2022/10/12 10:13:53;;;;;;;29.45;7.78;;;12.20;99.90;;;;;;5046114;28;20456;-60
2022/10/12 10:16:22;;;;;;;17.20;7.30;;;12.30;99.90;;;;;;5045043;28;20379;-60
2022/10/12 10:19:00;;;;;;;20.08;7.50;;;12.40;99.90;;;;;;5042674;28;20049;-61
2022/10/12 10:21:38;;;;;;;19.83;6.68;;;12.50;99.90;;;;;;5040875;28;20037;-61
2022/10/12 10:24:25;;;;;;;20.77;7.45;;;12.50;99.90;;;;;;5043819;28;20031;-61
2022/10/12 10:26:53;;;;;;;17.27;7.10;;;12.70;99.90;;;;;;5047550;28;20521;-61
2022/10/12 10:29:27;;;;;;;17.60;7.38;;;12.80;99.90;;;;;;5047382;28;20040;-61
2022/10/12 10:32:10;;;;;;;19.27;7.00;;;12.70;99.90;;;;;;5036275;28;20469;-59
2022/10/12 10:34:36;;;;;;;16.50;6.95;;;12.70;99.90;;;;;;5041296;28;20108;-60
2022/10/12 10:37:05;;;;;;;18.38;7.28;;;12.90;99.90;;;;;;5043048;28;20029;-58
2022/10/12 10:39:39;;;;;;;14.80;7.65;;;12.90;99.90;;;;;;5045681;28;20049;-59
2022/10/12 10:42:16;;;;;;;17.00;6.55;;;13.10;99.90;;;;;;5051391;28;20086;-59
2022/10/12 10:44:48;;;;;;;15.65;6.28;;;13.30;99.90;;;;;;5064939;28;20179;-61
2022/10/12 10:47:14;;;;;;;18.40;7.40;;;13.40;99.90;;;;;;5049043;28;20020;-61
2022/10/12 10:49:44;;;;;;;21.25;7.55;;;13.50;99.90;;;;;;5049968;28;20048;-61
2022/10/12 10:52:30;;;;;;;19.20;7.13;;;13.70;99.90;;;;;;5049915;28;20531;-60
2022/10/12 10:55:17;;;;;;;18.00;6.82;;;13.80;99.90;;;;;;5050005;28;20398;-61
2022/10/12 10:57:58;;;;;;;21.65;6.30;;;14.00;99.90;;;;;;5048026;28;20090;-60
2022/10/12 11:00:24;;;;;;;16.15;5.38;;;14.00;99.90;;;;;;5039921;28;20040;-62
2022/10/12 11:03:00;;;;;;;16.05;5.15;;;14.00;99.90;;;;;;5050315;28;20387;-59
2022/10/12 11:05:32;;;;;;;21.05;6.10;;;14.20;99.90;;;;;;5051944;28;20036;-61
2022/10/12 11:08:01;;;;;;;19.65;6.22;;;14.30;99.90;;;;;;5052435;28;20053;-60
2022/10/12 11:10:40;;;;;;;21.40;5.43;;;14.20;99.90;;;;;;5048889;28;20025;-63
2022/10/12 11:13:18;;;;;;;18.85;5.07;;;14.20;99.90;;;;;;5050147;28;20086;-61
2022/10/12 11:16:15;;;;;;;15.70;6.63;;;14.40;99.90;;;;;;5045944;28;20017;-61
2022/10/12 11:18:48;;;;;;;11.38;4.60;;;14.40;99.90;;;;;;5044741;28;20102;-62
2022/10/12 11:21:34;;;;;;;16.38;5.97;;;14.60;99.90;;;;;;5044109;28;20059;-62
2022/10/12 11:24:13;;;;;;;10.65;4.97;;;14.50;99.90;;;;;;5049701;28;20025;-59
2022/10/12 11:26:45;;;;;;;14.88;5.03;;;14.70;99.90;;;;;;5049153;28;20454;-63
2022/10/12 11:29:16;;;;;;;23.77;5.75;;;14.60;99.90;;;;;;5050547;28;20052;-60
2022/10/12 11:31:50;;;;;;;14.82;5.15;;;14.50;99.90;;;;;;5045507;28;20142;-61
2022/10/12 11:34:20;;;;;;;15.93;5.22;;;14.50;99.90;;;;;;5039775;28;20067;-60
2022/10/12 11:36:50;;;;;;;15.93;5.25;;;14.50;99.90;;;;;;5046529;28;20036;-61
2022/10/12 11:39:26;;;;;;;21.83;6.25;;;14.70;99.90;;;;;;5052196;28;20029;-62
2022/10/12 11:41:54;;;;;;;15.13;5.00;;;14.90;99.90;;;;;;5051463;28;20036;-61
2022/10/12 11:44:43;;;;;;;12.23;5.47;;;15.00;99.90;;;;;;5045643;28;20037;-61
2022/10/12 11:47:38;;;;;;;20.02;6.22;;;15.00;99.90;;;;;;5047996;28;20037;-59
2022/10/12 11:50:24;;;;;;;16.42;5.38;;;14.90;99.90;;;;;;5051802;28;20021;-61
2022/10/12 11:52:52;;;;;;;16.83;5.68;;;15.00;99.90;;;;;;5047863;28;20021;-61
2022/10/12 11:55:43;;;;;;;11.85;5.32;;;15.00;99.90;;;;;;5051357;28;20021;-61
2022/10/12 11:58:22;;;;;;;15.40;5.90;;;15.10;99.90;;;;;;5048660;28;20512;-62
2022/10/12 12:01:11;;;;;;;21.17;4.93;;;15.20;99.90;;;;;;5043822;28;20028;-61
2022/10/12 12:03:43;;;;;;;16.13;4.78;;;15.20;99.90;;;;;;5049627;28;20059;-59
2022/10/12 12:06:27;;;;;;;18.38;4.88;;;15.30;99.90;;;;;;5046422;28;20028;-60
2022/10/12 12:08:57;;;;;;;22.58;4.72;;;15.40;99.90;;;;;;5048237;28;20398;-60
2022/10/12 12:11:25;;;;;;;10.95;5.10;;;15.60;99.90;;;;;;5056805;28;20037;-61
2022/10/12 12:14:19;;;;;;;18.52;5.28;;;15.80;99.90;;;;;;5051360;28;20524;-61
2022/10/12 12:16:45;;;;;;;12.00;4.65;;;16.20;99.90;;;;;;5043823;28;20056;-61
2022/10/12 12:19:34;;;;;;;18.55;6.90;;;16.70;99.90;;;;;;5047822;28;20411;-60
2022/10/12 12:22:17;;;;;;;19.25;5.03;;;17.00;99.90;;;;;;5049686;28;20486;-59
2022/10/12 12:25:16;;;;;;;20.30;4.85;;;16.90;99.90;;;;;;5054259;28;20044;-60
2022/10/12 12:27:47;;;;;;;13.75;4.75;;;16.80;99.90;;;;;;5046299;28;20033;-61
2022/10/12 12:30:18;;;;;;;17.92;4.05;;;16.70;99.90;;;;;;5050001;28;20037;-61
2022/10/12 12:32:47;;;;;;;11.18;4.03;;;16.70;99.90;;;;;;5048280;28;20650;-60
2022/10/12 12:35:25;;;;;;;19.38;4.65;;;16.60;99.90;;;;;;5051707;28;20036;-61
2022/10/12 12:38:33;;;;;;;14.80;4.40;;;16.40;99.90;;;;;;5041268;28;20116;-61
2022/10/12 12:41:01;;;;;;;9.88;4.07;;;16.40;99.90;;;;;;5005216;28;20176;-62
2022/10/12 12:43:48;;;;;;;11.93;4.13;;;16.60;99.90;;;;;;5038858;28;20028;-62
2022/10/12 12:46:14;;;;;;;10.63;3.88;;;16.70;99.90;;;;;;5026948;28;20033;-62
2022/10/12 12:48:43;;;;;;;10.00;4.43;;;16.70;99.90;;;;;;5036538;28;20032;-61
2022/10/12 12:51:12;;;;;;;20.88;5.38;;;16.50;99.90;;;;;;5046625;28;20021;-60
2022/10/12 12:53:48;;;;;;;11.90;3.33;;;16.30;99.90;;;;;;5050198;28;20032;-61
2022/10/12 12:56:25;;;;;;;16.50;4.40;;;16.40;99.90;;;;;;5037339;28;20041;-63
2022/10/12 12:59:20;;;;;;;17.15;4.80;;;16.40;99.90;;;;;;5038172;28;20029;-62
2022/10/12 13:01:45;;;;;;;;;;;16.60;99.90;;;;;;5043602;28;20033;-62
2022/10/12 13:04:26;;;;;;;10.73;4.18;;;17.00;99.90;;;;;;5047147;28;19962;-61
2022/10/12 13:07:16;;;;;;;15.57;4.70;;;17.40;99.90;;;;;;5044255;28;20032;-61
2022/10/12 13:10:02;;;;;;;12.27;4.78;;;17.80;99.90;;;;;;5047779;28;20053;-62